Airfield :
LOGIN :

Register | Disclaimer

   EN    FR    IT 

 










Legend :    VFR   Marginal VFR   IFR   Intensive IFR   Very Intensive IFR
Visi :
Ceiling :
>= 8 km
>= 3000ft
5 to 8 km
1000 to 3000 ft
1500m to 5 km
500 to 1000 ft
800 to 1500m
200 to 500 ft
< 800m
< 200 ft
Symbols :   Thunderstorms  Fog  Heavy snow  Heavy precipitations  Wind > 20 kt
SIGMETs :     Misc.  Thunderstorms  Icing  Turbulence  Mountain Waves  Volcanic Ashes







- Airport Elevation : 74 ft
- IATA code : EIN


EHEH - Eindhoven

CURRENT METAR :
  • 261225Z AUTO 04008KT 010V090 9999 NCD 13/05 Q1024 BLU 05009KT CAVOK

EXPIRED METARs :
  • 261155Z AUTO 04007KT 360V120 9999 FEW130 BKN210 12/05 Q1025 BLU 05009KT CAVOK
  • 261125Z AUTO 05008KT 010V080 9999 BKN220 11/05 Q1025 BLU 05009KT CAVOK
  • 261055Z AUTO 04008KT 010V080 9999 OVC240 10/05 Q1025 BLU 05009KT CAVOK
  • 261025Z AUTO 04007KT 010V080 9999 FEW180 BKN270 09/05 Q1025 BLU 05009KT CAVOK
  • 260955Z AUTO 04007KT 9999 OVC290 08/04 Q1025 BLU 05009KT CAVOK

TAF TAF EHEH
Valid from the 26 at 12:00 until the 27 at 18:00 UTC


261210Z 2612/2718 07008KT CAVOK
No reported NOTAMs for that airfield.



MET'MAP, your aeronautical weather chart ! - Copyright ORBIFLY December 2007 - Disclaimer

ORBIFLY MET'MAP TEAM :

Programming & Development : Alexandra Zaïnal
Concept & Development : Baudouin d'Aumeries
Co-Development & Prog : Marc-Olivier Méhu
Technical & hardware support : Manuel Goepfert

Contact : metmap@orbifly.com




SOURCES & CREDITS :

   NOAA